WMT2400 LATI-LIBP
Flight info
| Callsign | WMT2400 |
|---|---|
| Flight time | 0h 56m |
| Altitude | 36000 |
| Route | DIRES DCT PAPIZ DCT ENOXA DCT BANAV DCT GARGA DCT RIVAM/N0368F180 M169 ERPOG |
| Aircraft | A321/M-SDE3FGHIRWY/LB1 |
Departure
| Time | 2026-04-21 16:42 |
|---|---|
| Airport | Tirana International Airport Mother Teresa (LATI) |
Arrival
| Time | 2026-04-21 17:39 |
|---|---|
| Airport | Abruzzo Airport (LIBP) |
| Time | Latitude | Longitude | Altitude | Speed | Heading |
|---|---|---|---|---|---|
| 2026-04-21 16:11 | 41.41910 | 19.71524 | 124 ft | 0 kts | 264° |
| 2026-04-21 16:32 | 41.41911 | 19.71540 | 119 ft | 3 kts | 263° |
| 2026-04-21 16:32 | 41.41911 | 19.71570 | 123 ft | 4 kts | 300° |
| 2026-04-21 16:32 | 41.41893 | 19.71588 | 120 ft | 4 kts | 352° |
| 2026-04-21 16:33 | 41.41880 | 19.71590 | 124 ft | 1 kts | 354° |
| 2026-04-21 16:33 | 41.41878 | 19.71590 | 124 ft | 0 kts | 354° |
| 2026-04-21 16:36 | 41.41882 | 19.71589 | 124 ft | 2 kts | 354° |
| 2026-04-21 16:36 | 41.41911 | 19.71586 | 123 ft | 7 kts | 354° |
| 2026-04-21 16:36 | 41.41966 | 19.71578 | 123 ft | 9 kts | 354° |
| 2026-04-21 16:37 | 41.42034 | 19.71569 | 122 ft | 11 kts | 354° |
| 2026-04-21 16:37 | 41.42113 | 19.71559 | 122 ft | 12 kts | 354° |
| 2026-04-21 16:37 | 41.42204 | 19.71546 | 120 ft | 14 kts | 354° |
| 2026-04-21 16:37 | 41.42305 | 19.71532 | 119 ft | 15 kts | 354° |
| 2026-04-21 16:38 | 41.42415 | 19.71517 | 119 ft | 17 kts | 354° |
| 2026-04-21 16:38 | 41.42534 | 19.71501 | 117 ft | 18 kts | 354° |
| 2026-04-21 16:38 | 41.42628 | 19.71489 | 117 ft | 9 kts | 356° |
| 2026-04-21 16:38 | 41.42663 | 19.71547 | 118 ft | 9 kts | 78° |
| 2026-04-21 16:39 | 41.42671 | 19.71636 | 118 ft | 10 kts | 84° |
| 2026-04-21 16:39 | 41.42678 | 19.71733 | 115 ft | 8 kts | 84° |
| 2026-04-21 16:39 | 41.42680 | 19.71757 | 118 ft | 0 kts | 84° |
| 2026-04-21 16:40 | 41.42680 | 19.71764 | 118 ft | 1 kts | 84° |
| 2026-04-21 16:40 | 41.42682 | 19.71786 | 118 ft | 4 kts | 84° |
| 2026-04-21 16:40 | 41.42685 | 19.71828 | 115 ft | 5 kts | 84° |
| 2026-04-21 16:41 | 41.42687 | 19.71856 | 115 ft | 5 kts | 86° |
| 2026-04-21 16:41 | 41.42635 | 19.71904 | 119 ft | 10 kts | 178° |
| 2026-04-21 16:41 | 41.42561 | 19.71911 | 116 ft | 12 kts | 175° |
| 2026-04-21 16:41 | 41.42376 | 19.71936 | 119 ft | 57 kts | 174° |
| 2026-04-21 16:42 | 41.41741 | 19.72022 | 123 ft | 124 kts | 174° |
| 2026-04-21 16:42 | 41.40702 | 19.72163 | 174 ft | 171 kts | 174° |
| 2026-04-21 16:42 | 41.39547 | 19.72309 | 913 ft | 162 kts | 177° |
| 2026-04-21 16:42 | 41.38423 | 19.72461 | 1685 ft | 163 kts | 176° |
| 2026-04-21 16:43 | 41.37252 | 19.72628 | 2288 ft | 178 kts | 177° |
| 2026-04-21 16:43 | 41.35962 | 19.72784 | 2748 ft | 195 kts | 179° |
| 2026-04-21 16:43 | 41.34599 | 19.72365 | 3070 ft | 212 kts | 214° |
| 2026-04-21 16:43 | 41.33614 | 19.70864 | 3536 ft | 221 kts | 238° |
| 2026-04-21 16:44 | 41.32706 | 19.69141 | 3982 ft | 237 kts | 235° |
| 2026-04-21 16:44 | 41.31671 | 19.67319 | 4390 ft | 253 kts | 234° |
| 2026-04-21 16:44 | 41.30573 | 19.65465 | 5109 ft | 256 kts | 233° |
| 2026-04-21 16:44 | 41.29455 | 19.63636 | 5945 ft | 254 kts | 233° |
| 2026-04-21 16:45 | 41.28329 | 19.61827 | 6754 ft | 253 kts | 233° |
| 2026-04-21 16:45 | 41.27197 | 19.60021 | 7512 ft | 254 kts | 233° |
| 2026-04-21 16:45 | 41.26079 | 19.58240 | 8363 ft | 252 kts | 235° |
| 2026-04-21 16:45 | 41.25306 | 19.56143 | 8786 ft | 257 kts | 262° |
| 2026-04-21 16:46 | 41.25234 | 19.53763 | 9452 ft | 260 kts | 269° |
| 2026-04-21 16:46 | 41.25031 | 19.51364 | 10146 ft | 264 kts | 263° |
| 2026-04-21 16:46 | 41.24706 | 19.48856 | 10315 ft | 288 kts | 258° |
| 2026-04-21 16:46 | 41.23812 | 19.46362 | 10446 ft | 315 kts | 235° |
| 2026-04-21 16:47 | 41.22311 | 19.44141 | 10798 ft | 328 kts | 231° |
| 2026-04-21 16:47 | 41.20768 | 19.41873 | 11371 ft | 332 kts | 232° |
| 2026-04-21 16:47 | 41.19223 | 19.39576 | 12005 ft | 335 kts | 232° |
| 2026-04-21 16:47 | 41.17667 | 19.37249 | 12632 ft | 338 kts | 232° |
| 2026-04-21 16:48 | 41.16095 | 19.34897 | 13274 ft | 342 kts | 232° |
| 2026-04-21 16:48 | 41.14508 | 19.32527 | 13897 ft | 345 kts | 232° |
| 2026-04-21 16:48 | 41.12901 | 19.30131 | 14467 ft | 348 kts | 232° |
| 2026-04-21 16:48 | 41.11303 | 19.27757 | 15034 ft | 351 kts | 232° |
| 2026-04-21 16:49 | 41.09667 | 19.25336 | 15611 ft | 354 kts | 232° |
| 2026-04-21 16:49 | 41.08011 | 19.22891 | 16193 ft | 357 kts | 233° |
| 2026-04-21 16:49 | 41.06344 | 19.20432 | 16760 ft | 360 kts | 233° |
| 2026-04-21 16:49 | 41.04662 | 19.17953 | 17317 ft | 363 kts | 233° |
| 2026-04-21 16:50 | 41.02965 | 19.15450 | 17879 ft | 366 kts | 233° |
| 2026-04-21 16:50 | 41.01254 | 19.12923 | 18409 ft | 369 kts | 233° |
| 2026-04-21 16:50 | 40.99530 | 19.10383 | 18865 ft | 373 kts | 233° |
| 2026-04-21 16:50 | 40.97787 | 19.07816 | 19308 ft | 377 kts | 233° |
| 2026-04-21 16:51 | 40.96028 | 19.05232 | 19796 ft | 380 kts | 233° |
| 2026-04-21 16:51 | 40.94253 | 19.02626 | 20322 ft | 382 kts | 233° |
| 2026-04-21 16:51 | 40.92534 | 18.99960 | 20821 ft | 380 kts | 240° |
| 2026-04-21 16:51 | 40.91286 | 18.96928 | 21302 ft | 374 kts | 253° |
| 2026-04-21 16:52 | 40.90640 | 18.93633 | 21769 ft | 369 kts | 266° |
| 2026-04-21 16:52 | 40.90600 | 18.90265 | 21917 ft | 365 kts | 278° |
| 2026-04-21 16:52 | 40.90911 | 18.88097 | 21938 ft | 363 kts | 287° |
| 2026-04-21 16:52 | 40.91958 | 18.83903 | 21943 ft | 362 kts | 289° |
| 2026-04-21 16:53 | 40.92753 | 18.80737 | 21940 ft | 363 kts | 289° |
| 2026-04-21 16:53 | 40.93541 | 18.77566 | 21933 ft | 363 kts | 288° |
| 2026-04-21 16:53 | 40.94321 | 18.74396 | 21932 ft | 364 kts | 288° |
| 2026-04-21 16:53 | 40.95101 | 18.71205 | 21937 ft | 364 kts | 288° |
| 2026-04-21 16:54 | 40.95626 | 18.69054 | 21940 ft | 364 kts | 288° |
| 2026-04-21 16:54 | 40.96401 | 18.65865 | 21945 ft | 364 kts | 288° |
| 2026-04-21 16:54 | 40.97177 | 18.62676 | 21940 ft | 364 kts | 288° |
| 2026-04-21 16:54 | 40.97955 | 18.59487 | 21947 ft | 364 kts | 288° |
| 2026-04-21 16:55 | 40.98722 | 18.56339 | 21949 ft | 364 kts | 288° |
| 2026-04-21 16:55 | 40.99508 | 18.53110 | 21943 ft | 364 kts | 288° |
| 2026-04-21 16:55 | 41.00276 | 18.49959 | 21947 ft | 364 kts | 288° |
| 2026-04-21 16:55 | 41.01051 | 18.46772 | 21946 ft | 364 kts | 288° |
| 2026-04-21 16:56 | 41.01828 | 18.43582 | 21944 ft | 364 kts | 288° |
| 2026-04-21 16:56 | 41.02605 | 18.40380 | 21940 ft | 366 kts | 288° |
| 2026-04-21 16:56 | 41.03387 | 18.37164 | 21946 ft | 367 kts | 288° |
| 2026-04-21 16:56 | 41.04168 | 18.33942 | 21942 ft | 368 kts | 288° |
| 2026-04-21 16:57 | 41.04949 | 18.30714 | 21943 ft | 368 kts | 288° |
| 2026-04-21 16:57 | 41.05724 | 18.27489 | 21942 ft | 368 kts | 287° |
| 2026-04-21 16:57 | 41.06501 | 18.24253 | 21940 ft | 368 kts | 287° |
| 2026-04-21 16:57 | 41.07276 | 18.21021 | 21949 ft | 368 kts | 287° |
| 2026-04-21 16:58 | 41.08049 | 18.17791 | 21949 ft | 368 kts | 287° |
| 2026-04-21 16:58 | 41.08825 | 18.14555 | 21942 ft | 368 kts | 288° |
| 2026-04-21 16:58 | 41.09598 | 18.11333 | 21945 ft | 368 kts | 287° |
| 2026-04-21 16:58 | 41.10372 | 18.08102 | 21947 ft | 368 kts | 287° |
| 2026-04-21 16:59 | 41.11145 | 18.04874 | 21950 ft | 368 kts | 287° |
| 2026-04-21 16:59 | 41.11921 | 18.01638 | 21949 ft | 368 kts | 287° |
| 2026-04-21 16:59 | 41.12693 | 17.98406 | 21949 ft | 368 kts | 287° |
| 2026-04-21 16:59 | 41.13460 | 17.95175 | 21949 ft | 368 kts | 287° |
| 2026-04-21 17:00 | 41.14226 | 17.91925 | 21950 ft | 368 kts | 287° |
| 2026-04-21 17:00 | 41.14990 | 17.88688 | 21955 ft | 368 kts | 287° |
| 2026-04-21 17:00 | 41.15499 | 17.86548 | 21944 ft | 367 kts | 287° |
| 2026-04-21 17:00 | 41.16527 | 17.82226 | 21952 ft | 367 kts | 287° |
| 2026-04-21 17:01 | 41.17295 | 17.78994 | 21952 ft | 367 kts | 287° |
| 2026-04-21 17:01 | 41.18060 | 17.75760 | 21947 ft | 368 kts | 287° |
| 2026-04-21 17:01 | 41.18820 | 17.72531 | 21940 ft | 367 kts | 287° |
| 2026-04-21 17:01 | 41.19741 | 17.69375 | 21943 ft | 368 kts | 295° |
| 2026-04-21 17:02 | 41.21036 | 17.66441 | 21942 ft | 368 kts | 303° |
| 2026-04-21 17:02 | 41.22670 | 17.63805 | 21948 ft | 372 kts | 312° |
| 2026-04-21 17:02 | 41.24551 | 17.61447 | 21946 ft | 373 kts | 314° |
| 2026-04-21 17:02 | 41.26451 | 17.59110 | 21957 ft | 371 kts | 314° |
| 2026-04-21 17:03 | 41.28351 | 17.56765 | 22384 ft | 373 kts | 314° |
| 2026-04-21 17:03 | 41.30252 | 17.54416 | 22877 ft | 375 kts | 314° |
| 2026-04-21 17:03 | 41.32169 | 17.52039 | 23338 ft | 377 kts | 313° |
| 2026-04-21 17:03 | 41.34090 | 17.49650 | 23733 ft | 379 kts | 313° |
| 2026-04-21 17:04 | 41.36021 | 17.47248 | 24121 ft | 381 kts | 313° |
| 2026-04-21 17:04 | 41.37935 | 17.44865 | 24503 ft | 382 kts | 313° |
| 2026-04-21 17:04 | 41.39902 | 17.42411 | 24896 ft | 384 kts | 313° |
| 2026-04-21 17:04 | 41.41832 | 17.40005 | 25277 ft | 385 kts | 314° |
| 2026-04-21 17:05 | 41.43789 | 17.37569 | 25629 ft | 387 kts | 314° |
| 2026-04-21 17:05 | 41.45787 | 17.35085 | 25997 ft | 389 kts | 314° |
| 2026-04-21 17:05 | 41.47743 | 17.32649 | 26357 ft | 390 kts | 313° |
| 2026-04-21 17:05 | 41.49728 | 17.30169 | 26731 ft | 392 kts | 313° |
| 2026-04-21 17:06 | 41.51718 | 17.27681 | 27101 ft | 393 kts | 313° |
| 2026-04-21 17:06 | 41.53719 | 17.25182 | 27460 ft | 395 kts | 314° |
| 2026-04-21 17:06 | 41.55726 | 17.22668 | 27804 ft | 396 kts | 313° |
| 2026-04-21 17:06 | 41.57736 | 17.20147 | 27924 ft | 396 kts | 313° |
| 2026-04-21 17:07 | 41.59739 | 17.17628 | 27945 ft | 396 kts | 313° |
| 2026-04-21 17:07 | 41.61748 | 17.15104 | 27945 ft | 396 kts | 313° |
| 2026-04-21 17:07 | 41.63755 | 17.12587 | 27944 ft | 396 kts | 313° |
| 2026-04-21 17:07 | 41.65760 | 17.10068 | 27946 ft | 395 kts | 313° |
| 2026-04-21 17:08 | 41.67762 | 17.07547 | 27947 ft | 395 kts | 313° |
| 2026-04-21 17:08 | 41.69763 | 17.05020 | 27949 ft | 395 kts | 313° |
| 2026-04-21 17:08 | 41.71760 | 17.02500 | 27944 ft | 396 kts | 313° |
| 2026-04-21 17:08 | 41.73648 | 16.99834 | 27945 ft | 393 kts | 307° |
| 2026-04-21 17:09 | 41.77098 | 16.94167 | 27942 ft | 389 kts | 307° |
| 2026-04-21 17:09 | 41.78784 | 16.91409 | 27953 ft | 378 kts | 307° |
| 2026-04-21 17:09 | 41.80440 | 16.88694 | 27954 ft | 375 kts | 307° |
| 2026-04-21 17:10 | 41.82085 | 16.85989 | 27955 ft | 374 kts | 307° |
| 2026-04-21 17:10 | 41.83723 | 16.83285 | 27944 ft | 373 kts | 306° |
| 2026-04-21 17:10 | 41.85360 | 16.80578 | 27938 ft | 373 kts | 306° |
| 2026-04-21 17:10 | 41.86994 | 16.77874 | 27956 ft | 373 kts | 306° |
| 2026-04-21 17:11 | 41.88629 | 16.75170 | 27949 ft | 373 kts | 307° |
| 2026-04-21 17:11 | 41.90268 | 16.72467 | 27949 ft | 373 kts | 307° |
| 2026-04-21 17:11 | 41.91906 | 16.69765 | 27950 ft | 373 kts | 307° |
| 2026-04-21 17:11 | 41.93548 | 16.67053 | 27945 ft | 373 kts | 306° |
| 2026-04-21 17:12 | 41.95180 | 16.64348 | 27938 ft | 373 kts | 306° |
| 2026-04-21 17:12 | 41.96811 | 16.61641 | 27944 ft | 373 kts | 306° |
| 2026-04-21 17:12 | 41.98440 | 16.58929 | 27934 ft | 373 kts | 306° |
| 2026-04-21 17:12 | 42.00068 | 16.56218 | 27932 ft | 372 kts | 306° |
| 2026-04-21 17:13 | 42.01693 | 16.53512 | 27946 ft | 372 kts | 306° |
| 2026-04-21 17:13 | 42.03321 | 16.50803 | 27957 ft | 373 kts | 306° |
| 2026-04-21 17:13 | 42.04952 | 16.48088 | 27965 ft | 373 kts | 306° |
| 2026-04-21 17:13 | 42.06580 | 16.45374 | 27959 ft | 373 kts | 306° |
| 2026-04-21 17:14 | 42.08209 | 16.42654 | 27947 ft | 373 kts | 306° |
| 2026-04-21 17:14 | 42.09836 | 16.39930 | 27952 ft | 373 kts | 306° |
| 2026-04-21 17:14 | 42.11462 | 16.37209 | 27954 ft | 373 kts | 306° |
| 2026-04-21 17:14 | 42.13091 | 16.34490 | 27946 ft | 373 kts | 307° |
| 2026-04-21 17:15 | 42.14721 | 16.31769 | 27946 ft | 373 kts | 306° |
| 2026-04-21 17:15 | 42.16349 | 16.29046 | 27946 ft | 373 kts | 306° |
| 2026-04-21 17:15 | 42.17974 | 16.26320 | 27941 ft | 373 kts | 306° |
| 2026-04-21 17:15 | 42.19597 | 16.23590 | 27945 ft | 373 kts | 306° |
| 2026-04-21 17:16 | 42.21214 | 16.20866 | 27949 ft | 373 kts | 306° |
| 2026-04-21 17:16 | 42.22812 | 16.18170 | 27949 ft | 373 kts | 306° |
| 2026-04-21 17:16 | 42.24430 | 16.15438 | 27951 ft | 373 kts | 306° |
| 2026-04-21 17:16 | 42.26052 | 16.12699 | 27950 ft | 373 kts | 306° |
| 2026-04-21 17:17 | 42.27726 | 16.09958 | 27957 ft | 373 kts | 308° |
| 2026-04-21 17:17 | 42.29426 | 16.07375 | 27982 ft | 373 kts | 309° |
| 2026-04-21 17:17 | 42.31198 | 16.04800 | 27978 ft | 374 kts | 310° |
| 2026-04-21 17:17 | 42.32988 | 16.02240 | 27978 ft | 374 kts | 310° |
| 2026-04-21 17:18 | 42.34768 | 15.99686 | 27974 ft | 373 kts | 310° |
| 2026-04-21 17:18 | 42.36531 | 15.97131 | 27834 ft | 368 kts | 310° |
| 2026-04-21 17:18 | 42.38250 | 15.94618 | 27562 ft | 358 kts | 309° |
| 2026-04-21 17:18 | 42.39918 | 15.92157 | 27301 ft | 353 kts | 309° |
| 2026-04-21 17:19 | 42.41560 | 15.89721 | 27050 ft | 346 kts | 309° |
| 2026-04-21 17:19 | 42.43168 | 15.87336 | 26685 ft | 342 kts | 309° |
| 2026-04-21 17:19 | 42.44761 | 15.84961 | 26310 ft | 337 kts | 309° |
| 2026-04-21 17:19 | 42.46330 | 15.82621 | 25943 ft | 335 kts | 309° |
| 2026-04-21 17:20 | 42.47822 | 15.80236 | 25586 ft | 328 kts | 302° |
| 2026-04-21 17:20 | 42.48910 | 15.77563 | 25234 ft | 322 kts | 291° |
| 2026-04-21 17:20 | 42.49544 | 15.74666 | 24835 ft | 320 kts | 281° |
| 2026-04-21 17:20 | 42.49716 | 15.71669 | 24451 ft | 320 kts | 271° |
| 2026-04-21 17:21 | 42.49608 | 15.68668 | 24057 ft | 317 kts | 270° |
| 2026-04-21 17:21 | 42.49503 | 15.65734 | 23687 ft | 314 kts | 270° |
| 2026-04-21 17:21 | 42.49401 | 15.62788 | 23259 ft | 311 kts | 271° |
| 2026-04-21 17:21 | 42.49303 | 15.59877 | 22863 ft | 307 kts | 270° |
| 2026-04-21 17:22 | 42.49236 | 15.57925 | 22601 ft | 305 kts | 270° |
| 2026-04-21 17:22 | 42.49105 | 15.54150 | 22093 ft | 302 kts | 270° |
| 2026-04-21 17:22 | 42.49002 | 15.51313 | 21699 ft | 301 kts | 270° |
| 2026-04-21 17:22 | 42.48899 | 15.48491 | 21304 ft | 299 kts | 270° |
| 2026-04-21 17:23 | 42.48794 | 15.45679 | 20905 ft | 298 kts | 270° |
| 2026-04-21 17:23 | 42.48691 | 15.42873 | 20504 ft | 297 kts | 270° |
| 2026-04-21 17:23 | 42.48590 | 15.40082 | 20107 ft | 296 kts | 270° |
| 2026-04-21 17:23 | 42.48488 | 15.37302 | 19704 ft | 295 kts | 270° |
| 2026-04-21 17:24 | 42.48383 | 15.34527 | 19296 ft | 294 kts | 270° |
| 2026-04-21 17:24 | 42.48278 | 15.31766 | 18895 ft | 293 kts | 269° |
| 2026-04-21 17:24 | 42.48171 | 15.29007 | 18492 ft | 292 kts | 269° |
| 2026-04-21 17:24 | 42.48065 | 15.26257 | 18068 ft | 292 kts | 269° |
| 2026-04-21 17:25 | 42.47956 | 15.23518 | 17644 ft | 291 kts | 269° |
| 2026-04-21 17:25 | 42.47846 | 15.20776 | 17252 ft | 290 kts | 269° |
| 2026-04-21 17:25 | 42.47739 | 15.18053 | 16863 ft | 289 kts | 269° |
| 2026-04-21 17:25 | 42.47637 | 15.15344 | 16463 ft | 288 kts | 269° |
| 2026-04-21 17:26 | 42.47538 | 15.12643 | 16072 ft | 286 kts | 269° |
| 2026-04-21 17:26 | 42.47440 | 15.09948 | 15682 ft | 285 kts | 269° |
| 2026-04-21 17:26 | 42.47343 | 15.07307 | 15303 ft | 284 kts | 269° |
| 2026-04-21 17:26 | 42.47241 | 15.04634 | 14922 ft | 284 kts | 269° |
| 2026-04-21 17:27 | 42.47139 | 15.01966 | 14533 ft | 283 kts | 268° |
| 2026-04-21 17:27 | 42.47031 | 14.99306 | 14147 ft | 283 kts | 269° |
| 2026-04-21 17:27 | 42.46925 | 14.96646 | 13763 ft | 283 kts | 269° |
| 2026-04-21 17:27 | 42.46818 | 14.93979 | 13348 ft | 282 kts | 269° |
| 2026-04-21 17:28 | 42.46712 | 14.91334 | 12973 ft | 281 kts | 268° |
| 2026-04-21 17:28 | 42.46608 | 14.88690 | 12598 ft | 281 kts | 268° |
| 2026-04-21 17:28 | 42.46504 | 14.86053 | 12222 ft | 280 kts | 268° |
| 2026-04-21 17:28 | 42.46398 | 14.83429 | 11853 ft | 279 kts | 268° |
| 2026-04-21 17:29 | 42.46290 | 14.80821 | 11479 ft | 277 kts | 268° |
| 2026-04-21 17:29 | 42.46181 | 14.78219 | 11116 ft | 275 kts | 268° |
| 2026-04-21 17:29 | 42.46072 | 14.75629 | 10759 ft | 274 kts | 268° |
| 2026-04-21 17:29 | 42.45968 | 14.73065 | 10397 ft | 272 kts | 268° |
| 2026-04-21 17:30 | 42.45864 | 14.70527 | 10216 ft | 267 kts | 268° |
| 2026-04-21 17:30 | 42.45760 | 14.67992 | 10112 ft | 270 kts | 268° |
| 2026-04-21 17:30 | 42.45654 | 14.65457 | 9991 ft | 270 kts | 268° |
| 2026-04-21 17:30 | 42.45549 | 14.62944 | 9649 ft | 274 kts | 268° |
| 2026-04-21 17:31 | 42.45440 | 14.60370 | 9263 ft | 272 kts | 268° |
| 2026-04-21 17:31 | 42.45330 | 14.57798 | 8819 ft | 272 kts | 268° |
| 2026-04-21 17:31 | 42.45250 | 14.55251 | 8462 ft | 270 kts | 274° |
| 2026-04-21 17:31 | 42.45839 | 14.52890 | 8063 ft | 268 kts | 307° |
| 2026-04-21 17:32 | 42.46772 | 14.51753 | 7768 ft | 270 kts | 330° |
| 2026-04-21 17:32 | 42.49200 | 14.50894 | 7155 ft | 277 kts | 349° |
| 2026-04-21 17:32 | 42.51127 | 14.50469 | 6780 ft | 276 kts | 347° |
| 2026-04-21 17:32 | 42.52941 | 14.49795 | 6386 ft | 271 kts | 339° |
| 2026-04-21 17:33 | 42.54675 | 14.48800 | 5812 ft | 269 kts | 333° |
| 2026-04-21 17:33 | 42.56308 | 14.47576 | 5220 ft | 267 kts | 328° |
| 2026-04-21 17:33 | 42.57859 | 14.46198 | 4625 ft | 266 kts | 325° |
| 2026-04-21 17:33 | 42.59326 | 14.44679 | 4044 ft | 265 kts | 319° |
| 2026-04-21 17:34 | 42.60327 | 14.42640 | 3575 ft | 261 kts | 287° |
| 2026-04-21 17:34 | 42.60349 | 14.40196 | 3183 ft | 264 kts | 253° |
| 2026-04-21 17:34 | 42.59360 | 14.38148 | 2937 ft | 259 kts | 220° |
| 2026-04-21 17:34 | 42.57993 | 14.36660 | 2866 ft | 245 kts | 221° |
| 2026-04-21 17:35 | 42.56779 | 14.35124 | 2844 ft | 231 kts | 225° |
| 2026-04-21 17:35 | 42.55708 | 14.33547 | 2741 ft | 224 kts | 236° |
| 2026-04-21 17:35 | 42.54933 | 14.31725 | 2649 ft | 222 kts | 241° |
| 2026-04-21 17:35 | 42.54121 | 14.29951 | 2560 ft | 221 kts | 232° |
| 2026-04-21 17:36 | 42.53005 | 14.28510 | 2349 ft | 221 kts | 217° |
| 2026-04-21 17:36 | 42.51787 | 14.27265 | 2061 ft | 218 kts | 217° |
| 2026-04-21 17:36 | 42.50602 | 14.26050 | 1788 ft | 206 kts | 217° |
| 2026-04-21 17:36 | 42.49509 | 14.24917 | 1496 ft | 190 kts | 218° |
| 2026-04-21 17:37 | 42.48512 | 14.23879 | 1262 ft | 174 kts | 218° |
| 2026-04-21 17:37 | 42.47601 | 14.22935 | 1037 ft | 159 kts | 218° |
| 2026-04-21 17:37 | 42.47019 | 14.22333 | 860 ft | 154 kts | 218° |
| 2026-04-21 17:37 | 42.46179 | 14.21458 | 627 ft | 151 kts | 220° |
| 2026-04-21 17:38 | 42.45348 | 14.20599 | 449 ft | 150 kts | 218° |
| 2026-04-21 17:38 | 42.44529 | 14.19758 | 240 ft | 149 kts | 220° |
| 2026-04-21 17:38 | 42.43702 | 14.18897 | 60 ft | 148 kts | 219° |
| 2026-04-21 17:38 | 42.43010 | 14.18172 | 44 ft | 92 kts | 217° |
| 2026-04-21 17:39 | 42.42781 | 14.17943 | 44 ft | 13 kts | 210° |
| 2026-04-21 17:39 | 42.42706 | 14.17911 | 48 ft | 10 kts | 186° |
| 2026-04-21 17:39 | 42.42650 | 14.17901 | 47 ft | 7 kts | 187° |
| 2026-04-21 17:39 | 42.42599 | 14.17900 | 46 ft | 7 kts | 168° |
| 2026-04-21 17:40 | 42.42564 | 14.17937 | 43 ft | 6 kts | 125° |
| 2026-04-21 17:40 | 42.42557 | 14.17979 | 43 ft | 4 kts | 83° |
| 2026-04-21 17:40 | 42.42577 | 14.18016 | 43 ft | 8 kts | 41° |
| 2026-04-21 17:40 | 42.42630 | 14.18071 | 43 ft | 10 kts | 37° |
| 2026-04-21 17:41 | 42.42678 | 14.18121 | 45 ft | 8 kts | 37° |
| 2026-04-21 17:41 | 42.42719 | 14.18164 | 43 ft | 7 kts | 38° |
| 2026-04-21 17:41 | 42.42762 | 14.18209 | 45 ft | 9 kts | 38° |
| 2026-04-21 17:41 | 42.42815 | 14.18263 | 44 ft | 11 kts | 37° |
| 2026-04-21 17:42 | 42.42879 | 14.18329 | 44 ft | 12 kts | 37° |
| 2026-04-21 17:42 | 42.42953 | 14.18405 | 44 ft | 13 kts | 37° |
| 2026-04-21 17:42 | 42.43008 | 14.18475 | 45 ft | 10 kts | 59° |
| 2026-04-21 17:42 | 42.43022 | 14.18557 | 45 ft | 8 kts | 82° |
| 2026-04-21 17:43 | 42.43042 | 14.18622 | 45 ft | 7 kts | 45° |
| 2026-04-21 17:43 | 42.43072 | 14.18660 | 45 ft | 5 kts | 45° |
| 2026-04-21 17:43 | 42.43089 | 14.18694 | 44 ft | 4 kts | 79° |
| 2026-04-21 17:43 | 42.43083 | 14.18720 | 45 ft | 2 kts | 119° |
| 2026-04-21 17:44 | 42.43075 | 14.18736 | 45 ft | 2 kts | 124° |
| 2026-04-21 17:44 | 42.43069 | 14.18746 | 45 ft | 1 kts | 127° |
| 2026-04-21 17:44 | 42.43065 | 14.18754 | 45 ft | 1 kts | 127° |
| 2026-04-21 17:44 | 42.43063 | 14.18756 | 45 ft | 0 kts | 127° |
| 2026-04-21 17:54 | 42.43062 | 14.18759 | 91 ft | 0 kts | 127° |
| 2026-04-21 17:55 | 42.43059 | 14.18752 | 86 ft | 0 kts | 127° |